Time;durP1;ratioP1;P1;durP2;ratioP2;P2;SDS_P1;SDS_P2;PMS_P1;PMS_P2;Temp;Humidity;BMP_temperature;BMP_pressure;BME280_temperature;BME280_humidity;BME280_pressure;Samples;Min_cycle;Max_cycle;Signal;HPM_P1;HPM_P2
2023/10/18 00:03:49;;;;;;;51.10;27.60;;;;;;;1.31;100.00;100854.34;223560;1264;140017;-82
2023/10/18 00:14:10;;;;;;;46.90;24.80;;;;;;;1.25;100.00;100845.86;223725;1264;250386;-82
2023/10/18 00:19:12;;;;;;;43.30;23.60;;;;;;;1.20;100.00;100849.60;223571;1264;141127;-82
2023/10/18 00:24:13;;;;;;;55.80;26.80;;;;;;;1.17;100.00;100842.23;224183;1264;139473;-82
2023/10/18 00:29:13;;;;;;;52.80;27.10;;;;;;;1.15;100.00;100841.61;223557;1264;140249;-82
2023/10/18 00:34:14;;;;;;;53.00;26.80;;;;;;;1.12;100.00;100840.66;224018;1264;139431;-83
2023/10/18 00:39:21;;;;;;;44.90;24.30;;;;;;;1.08;100.00;100836.27;223602;1264;140283;-82
2023/10/18 00:44:22;;;;;;;47.90;23.90;;;;;;;1.02;100.00;100828.90;224056;1264;139028;-82
2023/10/18 00:49:22;;;;;;;47.70;25.00;;;;;;;0.99;100.00;100828.31;223721;1264;140630;-83
2023/10/18 00:54:23;;;;;;;47.90;25.10;;;;;;;0.96;100.00;100828.87;224226;1264;139442;-83
2023/10/18 00:59:26;;;;;;;48.10;25.30;;;;;;;0.93;100.00;100825.64;223748;1264;140723;-83
2023/10/18 01:04:29;;;;;;;52.00;28.50;;;;;;;0.87;100.00;100816.27;224030;1264;140237;-83
2023/10/18 01:09:29;;;;;;;50.80;26.20;;;;;;;0.86;100.00;100816.89;223653;1265;140552;-83
2023/10/18 01:14:31;;;;;;;48.20;26.60;;;;;;;0.82;100.00;100818.71;224224;1264;139051;-83
2023/10/18 01:19:31;;;;;;;46.20;26.50;;;;;;;0.79;100.00;100814.98;223461;1264;162256;-83
2023/10/18 01:24:35;;;;;;;47.80;24.30;;;;;;;0.77;100.00;100814.21;224077;1264;139252;-83
2023/10/18 01:29:38;;;;;;;45.90;23.50;;;;;;;0.72;100.00;100806.52;223857;1264;140006;-83
2023/10/18 01:34:40;;;;;;;39.30;22.80;;;;;;;0.72;100.00;100805.05;224007;1265;139185;-83
2023/10/18 01:39:40;;;;;;;44.50;23.80;;;;;;;0.69;100.00;100800.70;223685;1264;140368;-83
2023/10/18 01:44:41;;;;;;;42.50;23.20;;;;;;;0.66;100.00;100806.21;224079;1264;139349;-83
2023/10/18 01:49:44;;;;;;;45.30;22.10;;;;;;;0.64;100.00;100810.80;223687;1264;140363;-83
2023/10/18 01:54:46;;;;;;;42.00;21.70;;;;;;;0.61;100.00;100814.55;223942;1264;139138;-83
2023/10/18 01:59:48;;;;;;;41.40;21.30;;;;;;;0.59;100.00;100808.80;223794;1264;140870;-83
2023/10/18 02:04:49;;;;;;;45.20;21.20;;;;;;;0.53;100.00;100817.05;224193;1264;138702;-82
2023/10/18 02:09:49;;;;;;;41.10;19.80;;;;;;;0.49;100.00;100817.16;223408;1265;140583;-83
2023/10/18 02:14:51;;;;;;;37.40;18.30;;;;;;;0.49;100.00;100811.33;224016;1264;139086;-82
2023/10/18 02:19:52;;;;;;;41.00;19.70;;;;;;;0.48;100.00;100808.16;223555;1264;140224;-83
2023/10/18 02:24:53;;;;;;;36.90;18.90;;;;;;;0.46;100.00;100801.33;224122;1264;138925;-83
2023/10/18 02:29:54;;;;;;;40.50;20.60;;;;;;;0.46;100.00;100793.04;223728;1265;140556;-82
2023/10/18 02:34:54;;;;;;;37.60;19.90;;;;;;;0.45;100.00;100789.42;223955;1264;139261;-83
2023/10/18 02:40:07;;;;;;;42.40;20.60;;;;;;;0.42;100.00;100789.64;223459;1264;141069;-83
2023/10/18 02:45:17;;;;;;;35.00;18.60;;;;;;;0.35;100.00;100785.94;223974;1264;139095;-83
2023/10/18 02:50:19;;;;;;;34.50;17.80;;;;;;;0.31;100.00;100785.48;223440;1267;141204;-83
2023/10/18 02:55:19;;;;;;;31.80;17.30;;;;;;;0.30;100.00;100785.98;224082;1264;139174;-83
2023/10/18 03:00:20;;;;;;;34.00;17.60;;;;;;;0.30;100.00;100790.59;223497;1264;140170;-83
2023/10/18 03:05:20;;;;;;;29.20;15.70;;;;;;;0.27;100.00;100787.62;224294;1264;96022;-83
2023/10/18 03:10:32;;;;;;;36.70;18.00;;;;;;;0.23;100.00;100785.76;223634;1264;140038;-83
2023/10/18 03:15:34;;;;;;;30.10;16.50;;;;;;;0.21;100.00;100786.53;223964;1264;139562;-83
2023/10/18 03:20:37;;;;;;;33.00;17.30;;;;;;;0.21;100.00;100783.13;223507;1264;140345;-83
2023/10/18 03:25:39;;;;;;;37.10;16.60;;;;;;;0.21;100.00;100773.54;224186;1264;139178;-83
2023/10/18 03:30:44;;;;;;;37.10;17.70;;;;;;;0.17;100.00;100776.54;223463;1264;141045;-83
2023/10/18 03:35:46;;;;;;;40.60;18.30;;;;;;;0.15;100.00;100775.77;224128;1268;95881;-83
2023/10/18 03:40:57;;;;;;;40.80;19.60;;;;;;;0.14;100.00;100780.02;223582;1265;140097;-83
2023/10/18 03:46:13;;;;;;;46.50;19.30;;;;;;;0.10;100.00;100779.07;224131;1264;138800;-83
2023/10/18 03:51:23;;;;;;;47.60;20.60;;;;;;;0.10;100.00;100767.15;223425;1264;141119;-83
2023/10/18 03:56:23;;;;;;;46.20;20.50;;;;;;;0.06;100.00;100763.98;224131;1264;139043;-82
2023/10/18 04:01:26;;;;;;;49.40;18.60;;;;;;;0.04;100.00;100760.95;223672;1264;140468;-84
2023/10/18 04:06:32;;;;;;;52.00;19.80;;;;;;;0.03;100.00;100752.55;224001;1264;139047;-83
2023/10/18 04:11:33;;;;;;;45.40;19.20;;;;;;;0.01;100.00;100744.70;223458;1266;140376;-83
2023/10/18 04:16:35;;;;;;;52.30;19.90;;;;;;;-0.01;100.00;100743.02;224183;1264;139054;-83
2023/10/18 04:21:35;;;;;;;59.50;22.20;;;;;;;-0.03;100.00;100742.73;223427;1264;140795;-83
2023/10/18 04:26:36;;;;;;;56.70;21.60;;;;;;;-0.07;100.00;100732.68;224027;1266;139441;-83
2023/10/18 04:31:37;;;;;;;53.50;21.60;;;;;;;-0.07;100.00;100732.58;223466;1265;141124;-83
2023/10/18 04:36:43;;;;;;;41.80;21.00;;;;;;;-0.07;100.00;100729.92;224173;1264;139369;-83
2023/10/18 04:41:44;;;;;;;42.50;21.00;;;;;;;-0.11;100.00;100724.49;223541;1264;140323;-83
2023/10/18 04:46:52;;;;;;;45.90;20.40;;;;;;;-0.17;100.00;100723.25;223894;1266;139034;-83
2023/10/18 04:51:54;;;;;;;43.10;23.40;;;;;;;-0.18;100.00;100716.61;223504;1264;141916;-83
2023/10/18 04:56:56;;;;;;;35.70;18.80;;;;;;;-0.21;100.00;100725.32;223905;1266;139896;-82
2023/10/18 05:01:56;;;;;;;34.40;18.20;;;;;;;-0.22;100.00;100736.43;223353;1266;140193;-82
2023/10/18 05:07:04;;;;;;;34.00;17.70;;;;;;;-0.24;100.00;100733.01;223907;1264;140015;-82
2023/10/18 05:12:48;;;;;;;29.80;15.60;;;;;;;-0.26;100.00;100728.19;223450;1265;140736;-82
2023/10/18 05:17:32;;;;;;;27.40;15.70;;;;;;;-0.27;100.00;100728.27;224051;1264;110812;-82
2023/10/18 05:22:41;;;;;;;29.90;17.00;;;;;;;-0.30;100.00;100725.60;223629;1265;140133;-82
2023/10/18 05:27:47;;;;;;;30.60;17.00;;;;;;;-0.31;100.00;100723.14;224155;1264;139354;-82
2023/10/18 05:33:02;;;;;;;35.10;19.30;;;;;;;-0.32;100.00;100723.33;223427;1266;140741;-82
2023/10/18 05:43:30;;;;;;;49.80;21.50;;;;;;;-0.32;100.00;100718.11;223425;1268;140782;-86
2023/10/18 05:48:32;;;;;;;49.90;20.50;;;;;;;-0.29;100.00;100716.62;223950;1268;140237;-86
2023/10/18 05:53:32;;;;;;;42.90;19.00;;;;;;;-0.28;100.00;100720.48;223718;1266;140662;-86
2023/10/18 05:58:33;;;;;;;37.10;17.50;;;;;;;-0.26;100.00;100724.14;223896;1264;139137;-86
2023/10/18 06:03:39;;;;;;;44.90;21.00;;;;;;;-0.23;100.00;100732.73;223289;1268;141279;-86
2023/10/18 06:08:41;;;;;;;43.40;19.00;;;;;;;-0.22;100.00;100726.05;223901;1264;139466;-88
2023/10/18 06:13:42;;;;;;;49.40;21.70;;;;;;;-0.19;100.00;100730.27;223601;1266;140320;-87
2023/10/18 06:18:42;;;;;;;51.30;24.30;;;;;;;-0.16;100.00;100726.09;223952;1265;139724;-87
2023/10/18 06:23:54;;;;;;;54.20;24.90;;;;;;;-0.12;100.00;100724.45;223564;1264;140479;-87
2023/10/18 06:29:11;;;;;;;56.80;27.90;;;;;;;-0.04;100.00;100722.67;224061;1268;140036;-88
2023/10/18 06:38:22;;;;;;;65.40;30.30;;;;;;;0.10;100.00;100723.75;214004;1292;637317;-87
2023/10/18 06:43:22;;;;;;;52.90;29.20;;;;;;;0.17;100.00;100725.17;212526;1298;138853;-87
2023/10/18 06:48:33;;;;;;;61.60;31.50;;;;;;;0.24;100.00;100728.87;213067;1295;222313;-88
2023/10/18 06:53:38;;;;;;;60.30;31.40;;;;;;;0.34;100.00;100729.54;212912;1292;139127;-88
2023/10/18 07:03:38;;;;;;;82.00;36.40;;;;;;;0.56;100.00;100738.17;213336;1294;139035;-88
2023/10/18 07:08:40;;;;;;;82.90;36.40;;;;;;;0.72;100.00;100733.93;213879;1294;138135;-87
2023/10/18 07:13:42;;;;;;;65.00;31.00;;;;;;;0.86;100.00;100723.20;213505;1288;139832;-88
2023/10/18 07:18:44;;;;;;;66.60;36.50;;;;;;;1.05;100.00;100725.42;214079;1288;138585;-88
2023/10/18 07:23:53;;;;;;;52.50;30.60;;;;;;;1.29;100.00;100717.73;213422;1293;143634;-88
2023/10/18 07:28:54;;;;;;;68.50;40.50;;;;;;;1.54;100.00;100711.03;213823;1288;137929;-88
2023/10/18 07:33:54;;;;;;;67.80;35.20;;;;;;;1.81;100.00;100702.77;213443;1289;139821;-89
2023/10/18 07:38:55;;;;;;;62.70;30.70;;;;;;;2.13;100.00;100696.17;214130;1289;138206;-88
2023/10/18 07:43:56;;;;;;;60.10;31.00;;;;;;;2.47;100.00;100695.45;213747;1291;139172;-89
2023/10/18 07:49:04;;;;;;;52.70;30.40;;;;;;;2.78;100.00;100696.97;214503;1288;138479;-88
2023/10/18 07:54:05;;;;;;;46.30;27.50;;;;;;;3.14;100.00;100696.84;213819;1292;139830;-89
2023/10/18 08:04:27;;;;;;;41.00;24.70;;;;;;;3.79;100.00;100693.21;214279;1292;361710;-88
2023/10/18 08:09:31;;;;;;;38.30;22.40;;;;;;;4.16;100.00;100693.83;214058;1288;139903;-88
2023/10/18 08:14:35;;;;;;;29.60;15.40;;;;;;;4.58;100.00;100690.14;214734;1292;138419;-88
2023/10/18 08:19:45;;;;;;;31.20;16.40;;;;;;;5.02;100.00;100694.48;213866;1288;139799;-89
2023/10/18 08:24:49;;;;;;;24.10;11.70;;;;;;;5.56;100.00;100697.70;214251;1288;138436;-89
2023/10/18 08:29:52;;;;;;;26.60;12.90;;;;;;;6.10;100.00;100692.94;213736;1291;139936;-88
2023/10/18 08:34:53;;;;;;;22.00;9.80;;;;;;;6.62;100.00;100693.23;214450;1292;138497;-88
2023/10/18 08:39:55;;;;;;;20.10;9.30;;;;;;;7.16;100.00;100695.55;213684;1288;139190;-88
2023/10/18 08:44:55;;;;;;;16.10;7.70;;;;;;;7.67;100.00;100695.98;214244;1288;139266;-89
2023/10/18 08:49:56;;;;;;;16.70;7.30;;;;;;;8.24;100.00;100692.52;213834;1291;140377;-89
2023/10/18 08:55:19;;;;;;;13.40;6.30;;;;;;;8.89;100.00;100700.02;214227;1292;138279;-89
2023/10/18 09:05:25;;;;;;;15.30;6.70;;;;;;;10.11;96.21;100705.44;214383;1288;108216;-89
2023/10/18 09:21:08;;;;;;;20.00;7.30;;;;;;;11.58;89.43;100698.46;213713;1291;140360;-88
2023/10/18 09:26:10;;;;;;;16.80;7.00;;;;;;;12.07;88.58;100698.27;215250;1292;137418;-88
2023/10/18 09:31:16;;;;;;;13.90;6.80;;;;;;;12.65;88.66;100690.14;213770;1289;139394;-87
2023/10/18 09:36:19;;;;;;;10.10;4.70;;;;;;;13.46;87.16;100682.30;214247;1291;138530;-89
2023/10/18 09:41:21;;;;;;;9.10;4.30;;;;;;;14.08;84.29;100682.38;214121;1288;139809;-90
2023/10/18 09:46:21;;;;;;;8.40;4.10;;;;;;;14.68;80.99;100680.31;214137;1293;138174;-89
2023/10/18 09:51:23;;;;;;;7.60;3.90;;;;;;;15.07;78.21;100670.56;213512;1290;139562;-88
2023/10/18 09:56:33;;;;;;;8.80;3.20;;;;;;;15.39;76.43;100668.64;214197;1289;138803;-88
2023/10/18 10:06:47;;;;;;;8.50;3.80;;;;;;;15.95;70.72;100671.96;214131;1288;137628;-88
2023/10/18 10:11:47;;;;;;;12.90;4.50;;;;;;;16.08;69.32;100667.42;213872;1291;139388;-89
2023/10/18 10:17:05;;;;;;;9.30;4.10;;;;;;;16.23;68.19;100654.22;214288;1288;137327;-88
2023/10/18 10:22:06;;;;;;;14.00;4.70;;;;;;;16.25;66.63;100646.58;213466;1289;138930;-88
2023/10/18 10:32:55;;;;;;;10.80;4.20;;;;;;;16.19;64.25;100634.42;213164;1289;139088;-87
2023/10/18 10:38:18;;;;;;;10.40;4.50;;;;;;;16.00;62.37;100621.71;214062;1290;138721;-88
2023/10/18 10:43:18;;;;;;;14.00;4.80;;;;;;;15.67;62.96;100616.57;213809;1289;138672;-88
2023/10/18 10:48:30;;;;;;;10.70;4.10;;;;;;;15.56;64.63;100605.79;214673;1288;138369;-88
2023/10/18 10:53:49;;;;;;;8.30;4.60;;;;;;;15.35;63.29;100606.05;213648;1289;139553;-88
2023/10/18 10:59:15;;;;;;;7.90;3.90;;;;;;;15.25;63.21;100607.27;214362;1291;138900;-90
2023/10/18 11:04:25;;;;;;;6.80;3.60;;;;;;;15.03;64.18;100601.12;213951;1289;243193;-89
2023/10/18 11:09:32;;;;;;;9.80;4.00;;;;;;;15.19;64.28;100600.17;213964;1288;138609;-88
2023/10/18 11:14:35;;;;;;;10.10;4.00;;;;;;;15.19;63.46;100596.86;214197;1289;137661;-87
2023/10/18 11:19:40;;;;;;;20.20;3.70;;;;;;;15.00;62.50;100591.48;213709;1291;139758;-89
2023/10/18 11:24:42;;;;;;;9.70;3.90;;;;;;;14.89;63.61;100583.29;213975;1293;138321;-87
2023/10/18 11:29:43;;;;;;;11.30;5.10;;;;;;;14.78;63.02;100579.68;213915;1291;138930;-88
2023/10/18 11:34:45;;;;;;;8.90;5.00;;;;;;;14.66;62.53;100580.75;214170;1292;137947;-88
2023/10/18 11:39:48;;;;;;;11.00;3.90;;;;;;;14.48;63.41;100577.70;213656;1294;138719;-88
2023/10/18 11:44:54;;;;;;;7.20;3.10;;;;;;;14.39;65.72;100568.56;214002;1288;137804;-88
2023/10/18 11:49:57;;;;;;;8.10;3.80;;;;;;;14.31;62.93;100561.84;216076;1288;138993;-88
2023/10/18 11:55:09;;;;;;;7.40;3.80;;;;;;;14.13;63.35;100546.03;214566;1288;138054;-86
2023/10/18 12:05:27;;;;;;;7.70;3.50;;;;;;;13.82;63.95;100529.70;214496;1289;105315;-89
2023/10/18 12:10:34;;;;;;;8.20;3.80;;;;;;;13.78;63.91;100529.31;213661;1292;139625;-89
2023/10/18 12:15:34;;;;;;;;;;;;;;;13.63;64.04;100522.58;214850;1293;137417;-88
2023/10/18 12:20:43;;;;;;;10.90;4.30;;;;;;;13.52;65.37;100515.64;214049;1288;125883;-88
2023/10/18 12:25:43;;;;;;;8.00;4.90;;;;;;;13.48;65.72;100509.38;214457;1288;137674;-89
2023/10/18 12:30:51;;;;;;;9.30;3.90;;;;;;;13.28;64.69;100507.01;213799;1288;139110;-88
2023/10/18 12:35:56;;;;;;;15.20;4.20;;;;;;;13.16;65.52;100490.73;214321;1289;95173;-88
2023/10/18 12:41:01;;;;;;;6.80;3.40;;;;;;;13.13;65.62;100483.53;213556;1288;138308;-87
2023/10/18 12:46:03;;;;;;;8.30;2.90;;;;;;;13.00;65.47;100472.06;214079;1288;138374;-88
2023/10/18 12:51:09;;;;;;;7.00;2.90;;;;;;;12.85;65.86;100466.30;213575;1289;140427;-88
2023/10/18 12:56:32;;;;;;;22.70;5.80;;;;;;;12.81;66.05;100461.96;213914;1292;138782;-88
2023/10/18 13:01:43;;;;;;;29.20;6.60;;;;;;;12.73;65.97;100454.20;213451;1291;139147;-89
2023/10/18 13:06:44;;;;;;;8.80;3.50;;;;;;;12.64;66.12;100447.71;214063;1291;138641;-89
2023/10/18 13:16:54;;;;;;;11.20;3.80;;;;;;;12.57;67.98;100438.38;214296;1292;139121;-89
2023/10/18 13:21:55;;;;;;;7.10;3.10;;;;;;;12.52;67.38;100427.40;213793;1291;138754;-88
2023/10/18 13:26:59;;;;;;;8.20;2.70;;;;;;;12.45;66.36;100425.73;214125;1289;137691;-88
2023/10/18 13:32:06;;;;;;;9.60;3.60;;;;;;;12.38;67.97;100420.48;213791;1289;138833;-88
2023/10/18 13:37:10;;;;;;;7.70;3.10;;;;;;;12.30;67.95;100412.02;214511;1293;137498;-87
2023/10/18 13:42:11;;;;;;;7.20;3.20;;;;;;;12.27;69.29;100413.27;213680;1291;139365;-89
2023/10/18 13:47:14;;;;;;;6.80;3.10;;;;;;;12.23;69.25;100409.88;214149;1288;108857;-89
2023/10/18 13:52:15;;;;;;;8.50;2.80;;;;;;;12.19;69.99;100402.04;213694;1289;139015;-88
2023/10/18 13:57:17;;;;;;;7.90;2.60;;;;;;;12.13;68.91;100395.16;214188;1288;137828;-89
2023/10/18 14:02:17;;;;;;;10.40;3.90;;;;;;;12.09;69.46;100390.59;213546;1293;139020;-88
2023/10/18 14:07:21;;;;;;;7.90;3.40;;;;;;;12.06;68.65;100387.96;214206;1291;138133;-89
2023/10/18 14:12:24;;;;;;;10.50;3.40;;;;;;;11.97;68.31;100386.96;213708;1294;138920;-89
2023/10/18 14:17:27;;;;;;;11.60;3.50;;;;;;;11.93;68.76;100381.60;214269;1292;95377;-90
2023/10/18 14:22:27;;;;;;;8.40;2.70;;;;;;;11.87;69.78;100375.96;213575;1292;138897;-89
2023/10/18 14:27:28;;;;;;;12.30;2.70;;;;;;;11.85;70.26;100369.27;214216;1294;137312;-89
2023/10/18 14:32:29;;;;;;;8.90;2.70;;;;;;;11.77;70.34;100364.96;213888;1293;138853;-88
2023/10/18 14:37:32;;;;;;;7.20;2.10;;;;;;;11.63;70.51;100363.55;214212;1294;138663;-88
2023/10/18 14:42:32;;;;;;;7.00;2.50;;;;;;;11.49;71.31;100355.08;213893;1289;138690;-88
2023/10/18 14:47:33;;;;;;;7.70;2.90;;;;;;;11.41;72.30;100352.36;214154;1292;95266;-87
2023/10/18 14:52:33;;;;;;;7.20;2.20;;;;;;;11.32;71.83;100349.39;213687;1292;138941;-89
2023/10/18 14:57:35;;;;;;;10.60;3.50;;;;;;;11.19;72.61;100346.46;214344;1289;137455;-88
2023/10/18 15:02:39;;;;;;;9.20;3.60;;;;;;;11.07;74.01;100345.83;213995;1292;138544;-88
2023/10/18 15:07:39;;;;;;;8.40;3.40;;;;;;;10.97;74.62;100343.94;214023;1288;137988;-88
2023/10/18 15:12:40;;;;;;;8.40;3.40;;;;;;;10.83;75.49;100340.98;213505;1293;138889;-88
2023/10/18 15:17:45;;;;;;;11.10;3.40;;;;;;;10.66;76.04;100336.04;214729;1288;96583;-89
2023/10/18 15:22:45;;;;;;;9.70;3.50;;;;;;;10.42;77.23;100331.41;213585;1294;140660;-89
2023/10/18 15:27:52;;;;;;;12.00;5.10;;;;;;;10.25;78.24;100332.89;214466;1288;138777;-89
2023/10/18 15:32:53;;;;;;;11.40;5.70;;;;;;;10.10;79.04;100332.86;213701;1294;139356;-89
2023/10/18 15:37:54;;;;;;;14.70;7.50;;;;;;;9.95;79.98;100331.40;214055;1289;138978;-89
2023/10/18 15:42:54;;;;;;;24.90;11.10;;;;;;;9.79;80.55;100329.56;213555;1292;140167;-88
2023/10/18 15:47:55;;;;;;;34.80;15.80;;;;;;;9.63;81.80;100327.61;214353;1291;97093;-87
2023/10/18 15:52:56;;;;;;;39.00;16.90;;;;;;;9.48;82.27;100326.95;213661;1292;139975;-88
2023/10/18 15:57:56;;;;;;;30.10;13.70;;;;;;;9.32;83.11;100325.15;214353;1292;138736;-88
2023/10/18 16:02:56;;;;;;;42.20;15.80;;;;;;;9.07;83.52;100320.21;213665;1292;139354;-88
2023/10/18 16:07:57;;;;;;;26.00;11.80;;;;;;;8.87;84.24;100322.19;214033;1292;138507;-88
2023/10/18 16:12:58;;;;;;;36.20;15.80;;;;;;;8.69;84.82;100319.16;213607;1292;139683;-88
2023/10/18 16:17:58;;;;;;;32.70;14.30;;;;;;;8.46;85.48;100316.23;213940;1294;139736;-86
2023/10/18 16:23:03;;;;;;;72.90;32.10;;;;;;;8.29;86.00;100316.80;213935;1289;140039;-88
2023/10/18 16:28:03;;;;;;;95.60;42.10;;;;;;;8.14;86.99;100317.73;213969;1292;138775;-88
2023/10/18 16:33:04;;;;;;;101.10;42.20;;;;;;;7.92;87.35;100313.68;213597;1291;139503;-88
2023/10/18 16:38:04;;;;;;;79.40;37.40;;;;;;;7.78;87.97;100306.36;213850;1292;139123;-88
2023/10/18 16:43:07;;;;;;;74.60;37.90;;;;;;;7.60;88.25;100307.80;213696;1289;139570;-88
2023/10/18 16:48:10;;;;;;;78.10;35.90;;;;;;;7.45;88.99;100305.05;214555;1292;140430;-87
2023/10/18 16:53:13;;;;;;;76.10;37.10;;;;;;;7.32;89.62;100300.23;214049;1294;139975;-88
2023/10/18 16:58:15;;;;;;;103.90;44.40;;;;;;;7.18;89.88;100299.70;214284;1292;138865;-87
2023/10/18 17:03:16;;;;;;;136.10;45.00;;;;;;;6.98;89.89;100302.52;214018;1292;139320;-85
2023/10/18 17:08:16;;;;;;;113.00;40.60;;;;;;;6.85;90.39;100297.27;214165;1293;140371;-88
2023/10/18 17:13:17;;;;;;;103.10;39.30;;;;;;;6.67;91.09;100296.23;213543;1289;139868;-88
2023/10/18 17:18:18;;;;;;;109.30;40.80;;;;;;;6.56;91.68;100294.06;213917;1292;138508;-88
2023/10/18 17:23:19;;;;;;;133.50;52.60;;;;;;;6.41;92.37;100290.96;213490;1291;139976;-87
2023/10/18 17:28:19;;;;;;;189.50;70.90;;;;;;;6.31;92.43;100291.96;214046;1292;138561;-87
2023/10/18 17:33:20;;;;;;;145.90;57.30;;;;;;;6.16;92.75;100283.77;213444;1288;139851;-87
2023/10/18 17:38:22;;;;;;;121.00;49.50;;;;;;;6.06;93.06;100283.34;213738;1289;138675;-88
2023/10/18 17:43:22;;;;;;;95.50;39.80;;;;;;;5.92;93.09;100277.02;213130;1289;139375;-87
2023/10/18 17:48:24;;;;;;;68.90;29.60;;;;;;;5.83;93.94;100271.95;213962;1292;138417;-87
2023/10/18 17:53:24;;;;;;;73.90;30.60;;;;;;;5.73;94.31;100262.28;213661;1289;139511;-88
2023/10/18 17:58:26;;;;;;;74.80;31.80;;;;;;;5.60;94.14;100256.05;214060;1289;138192;-87
2023/10/18 18:03:29;;;;;;;61.90;26.10;;;;;;;5.49;94.52;100252.69;215142;1291;139548;-88
2023/10/18 18:08:30;;;;;;;50.20;24.60;;;;;;;5.41;95.07;100253.27;214009;1291;138405;-88
2023/10/18 18:13:32;;;;;;;56.40;25.00;;;;;;;5.30;95.04;100247.16;213534;1289;139511;-87
2023/10/18 18:18:33;;;;;;;52.80;25.40;;;;;;;5.23;95.99;100243.68;214165;1295;138731;-88
2023/10/18 18:23:33;;;;;;;57.00;24.10;;;;;;;5.16;96.36;100235.61;213463;1289;139979;-88
2023/10/18 18:28:34;;;;;;;48.30;21.40;;;;;;;5.06;96.38;100227.49;213793;1292;138393;-88
2023/10/18 18:33:35;;;;;;;53.10;23.70;;;;;;;4.99;96.76;100228.79;213485;1293;139518;-88
2023/10/18 18:38:36;;;;;;;46.40;22.50;;;;;;;4.92;96.96;100228.96;214208;1292;138437;-89
2023/10/18 18:43:36;;;;;;;50.20;22.10;;;;;;;4.82;97.07;100229.44;213896;1292;139669;-88
2023/10/18 18:48:37;;;;;;;47.00;23.00;;;;;;;4.73;97.37;100224.95;214253;1293;265143;-88
2023/10/18 18:53:38;;;;;;;44.90;22.20;;;;;;;4.68;97.78;100219.10;213792;1289;139929;-88
2023/10/18 18:58:38;;;;;;;51.00;22.50;;;;;;;4.62;98.05;100217.98;214182;1289;138408;-88
2023/10/18 19:03:41;;;;;;;44.00;21.80;;;;;;;4.53;98.23;100213.73;213823;1295;139973;-86
2023/10/18 19:08:43;;;;;;;48.30;23.00;;;;;;;4.47;98.70;100214.16;214087;1292;138524;-86
2023/10/18 19:13:43;;;;;;;46.50;23.80;;;;;;;4.40;98.75;100215.90;213673;1292;139961;-87
2023/10/18 19:18:44;;;;;;;45.10;23.50;;;;;;;4.35;99.11;100212.77;214296;1289;138415;-88
2023/10/18 19:23:44;;;;;;;55.40;26.50;;;;;;;4.28;99.50;100211.98;213843;1295;207982;-87
2023/10/18 19:28:45;;;;;;;45.10;23.20;;;;;;;4.24;99.63;100204.80;214243;1290;140370;-87
2023/10/18 19:33:46;;;;;;;50.00;25.60;;;;;;;4.20;99.75;100201.31;214125;1290;139903;-86
2023/10/18 19:38:48;;;;;;;50.70;24.60;;;;;;;4.18;99.96;100199.43;214697;1289;138856;-87
2023/10/18 19:43:50;;;;;;;49.40;25.60;;;;;;;4.15;100.00;100200.36;214148;1294;139666;-87
2023/10/18 19:48:50;;;;;;;42.80;22.50;;;;;;;4.13;99.97;100196.97;214386;1290;138633;-87
2023/10/18 19:53:51;;;;;;;44.90;23.80;;;;;;;4.12;99.85;100190.39;213967;1289;139876;-82
2023/10/18 19:58:51;;;;;;;46.10;23.50;;;;;;;4.11;100.00;100189.10;214144;1289;139235;-82
2023/10/18 20:03:52;;;;;;;59.10;27.80;;;;;;;4.11;100.00;100179.43;213709;1289;139596;-82
2023/10/18 20:08:53;;;;;;;46.50;25.60;;;;;;;4.12;100.00;100181.05;214239;1292;138766;-83
2023/10/18 20:13:54;;;;;;;56.60;26.50;;;;;;;4.14;100.00;100175.05;213843;1292;139503;-82
2023/10/18 20:18:54;;;;;;;50.70;24.90;;;;;;;4.17;100.00;100169.00;214381;1289;139331;-82
2023/10/18 20:23:55;;;;;;;52.70;25.40;;;;;;;4.21;100.00;100163.44;213856;1292;139246;-82
2023/10/18 20:28:55;;;;;;;46.20;24.30;;;;;;;4.23;100.00;100162.17;214618;1292;140730;-82
2023/10/18 20:33:56;;;;;;;47.40;23.90;;;;;;;4.23;100.00;100157.04;213659;1295;139640;-83
2023/10/18 20:38:57;;;;;;;45.00;23.80;;;;;;;4.24;100.00;100152.23;214205;1292;139157;-82
2023/10/18 20:43:58;;;;;;;44.40;22.30;;;;;;;4.24;100.00;100150.71;213629;1289;139490;-82
2023/10/18 20:48:59;;;;;;;44.00;22.40;;;;;;;4.26;100.00;100151.29;214134;1292;139061;-81
2023/10/18 20:54:00;;;;;;;41.60;22.00;;;;;;;4.25;100.00;100138.84;213756;1295;139717;-81
2023/10/18 20:59:01;;;;;;;40.70;21.30;;;;;;;4.25;100.00;100132.13;214303;1292;96701;-81
2023/10/18 21:04:01;;;;;;;38.30;19.80;;;;;;;4.26;100.00;100130.27;213740;1288;139329;-82
2023/10/18 21:09:02;;;;;;;41.70;20.50;;;;;;;4.25;100.00;100127.77;214051;1294;139096;-82
2023/10/18 21:14:03;;;;;;;42.10;20.60;;;;;;;4.27;100.00;100129.06;213732;1288;139493;-82
2023/10/18 21:19:04;;;;;;;41.60;21.00;;;;;;;4.26;100.00;100129.36;214325;1288;139665;-82
2023/10/18 21:24:05;;;;;;;39.60;20.50;;;;;;;4.26;100.00;100128.19;213931;1292;139291;-82
2023/10/18 21:29:05;;;;;;;37.60;19.80;;;;;;;4.25;100.00;100128.69;214544;1289;96667;-82
2023/10/18 21:34:07;;;;;;;40.40;19.50;;;;;;;4.24;100.00;100125.23;214018;1292;139166;-82
2023/10/18 21:39:08;;;;;;;38.90;20.10;;;;;;;4.23;100.00;100118.91;214196;1289;139580;-82
2023/10/18 21:44:10;;;;;;;35.40;16.50;;;;;;;4.23;100.00;100108.64;214689;1292;139379;-82
2023/10/18 21:49:11;;;;;;;28.40;16.40;;;;;;;4.27;100.00;100092.80;214003;1292;139799;-82
2023/10/18 21:54:11;;;;;;;32.30;15.90;;;;;;;4.39;100.00;100081.13;214419;1288;139837;-82
2023/10/18 21:59:13;;;;;;;32.60;16.70;;;;;;;4.46;100.00;100075.95;213840;1291;140580;-82
2023/10/18 22:04:15;;;;;;;30.00;16.00;;;;;;;4.46;100.00;100071.12;213963;1293;138503;-82
2023/10/18 22:09:31;;;;;;;34.10;16.60;;;;;;;4.46;100.00;100068.55;213597;1289;140198;-82
2023/10/18 22:14:31;;;;;;;36.00;17.50;;;;;;;4.46;100.00;100064.26;214079;1291;138793;-81
2023/10/18 22:19:32;;;;;;;37.90;18.40;;;;;;;4.49;100.00;100057.65;213437;1289;139939;-81
2023/10/18 22:24:35;;;;;;;33.10;18.00;;;;;;;4.52;100.00;100053.63;213815;1288;139770;-81
2023/10/18 22:29:36;;;;;;;36.60;18.00;;;;;;;4.51;100.00;100047.51;213508;1292;139354;-81
2023/10/18 22:34:39;;;;;;;39.30;18.40;;;;;;;4.49;100.00;100043.58;213729;1292;138778;-81
2023/10/18 22:39:41;;;;;;;32.80;17.90;;;;;;;4.47;100.00;100036.27;213203;1294;139853;-81
2023/10/18 22:45:07;;;;;;;34.40;17.80;;;;;;;4.48;100.00;100035.05;213962;1292;141089;-82
2023/10/18 22:55:27;;;;;;;35.50;18.20;;;;;;;4.46;100.00;100028.63;214295;1293;138734;-81
2023/10/18 23:00:31;;;;;;;32.20;17.40;;;;;;;4.44;100.00;100026.77;213722;1290;140510;-81
2023/10/18 23:05:32;;;;;;;33.60;17.30;;;;;;;4.41;100.00;100022.73;218217;1290;105158;-81
2023/10/18 23:10:46;;;;;;;35.10;18.40;;;;;;;4.39;100.00;100015.88;213160;1291;139911;-81
2023/10/18 23:15:55;;;;;;;31.90;17.20;;;;;;;4.37;100.00;100003.38;213639;1294;139169;-82
2023/10/18 23:31:44;;;;;;;42.80;21.10;;;;;;;4.36;100.00;99982.34;213259;1294;142461;-82
2023/10/18 23:36:56;;;;;;;40.80;21.20;;;;;;;4.40;100.00;99976.89;214250;1291;138533;-81
2023/10/18 23:42:09;;;;;;;38.70;21.00;;;;;;;4.40;100.00;99971.38;213900;1289;140308;-82
2023/10/18 23:47:12;;;;;;;38.70;20.30;;;;;;;4.39;100.00;99967.30;214327;1293;96613;-82
2023/10/18 23:57:14;;;;;;;36.00;19.80;;;;;;;4.40;100.00;99958.85;218316;1288;138587;-81
